Time;durP1;ratioP1;P1;durP2;ratioP2;P2;SDS_P1;SDS_P2;PMS_P1;PMS_P2;Temp;Humidity;BMP_temperature;BMP_pressure;BME280_temperature;BME280_humidity;BME280_pressure;Samples;Min_cycle;Max_cycle;Signal;HPM_P1;HPM_P2
2023/03/18 00:00:24;;;;;;;6.22;3.92;;;;;;;9.25;53.48;97734.91;4978877;28;20034;-78
2023/03/18 00:02:51;;;;;;;4.63;3.65;;;;;;;9.32;53.17;97731.00;4977920;28;20077;-77
2023/03/18 00:05:33;;;;;;;5.50;3.78;;;;;;;9.35;53.32;97746.66;4979769;28;20053;-77
2023/03/18 00:08:05;;;;;;;6.00;3.83;;;;;;;9.39;52.54;97747.78;4979581;28;20034;-78
2023/03/18 00:10:38;;;;;;;6.25;3.83;;;;;;;9.40;52.64;97752.09;4982357;28;20043;-78
2023/03/18 00:13:12;;;;;;;5.90;4.15;;;;;;;9.37;52.54;97755.25;4981068;28;20042;-78
2023/03/18 00:15:41;;;;;;;5.85;4.43;;;;;;;9.24;53.11;97744.84;4985072;28;20051;-77
2023/03/18 00:18:11;;;;;;;4.88;4.32;;;;;;;9.27;53.35;97757.81;4978722;28;20041;-77
2023/03/18 00:20:42;;;;;;;4.93;3.67;;;;;;;9.21;53.75;97761.47;4995723;28;20054;-78
2023/03/18 00:23:17;;;;;;;4.20;3.60;;;;;;;9.25;53.37;97762.59;4996380;28;20046;-77
2023/03/18 00:25:47;;;;;;;4.85;3.60;;;;;;;9.20;52.51;97749.09;4978289;28;20042;-77
2023/03/18 00:28:17;;;;;;;6.10;4.22;;;;;;;9.19;53.27;97763.59;4978581;28;20125;-78
2023/03/18 00:30:48;;;;;;;5.13;3.72;;;;;;;9.15;53.51;97740.97;4998827;28;20040;-77
2023/03/18 00:33:16;;;;;;;5.75;3.88;;;;;;;9.22;53.83;97752.34;4996630;28;20041;-78
2023/03/18 00:35:45;;;;;;;5.95;3.92;;;;;;;9.22;52.81;97757.72;4989602;28;20557;-77
2023/03/18 00:38:19;;;;;;;6.68;3.75;;;;;;;9.12;53.36;97741.47;4971599;28;20047;-79
2023/03/18 00:41:00;;;;;;;5.07;3.92;;;;;;;9.25;53.02;97757.25;4996483;28;20042;-78
2023/03/18 00:43:34;;;;;;;4.80;4.05;;;;;;;9.15;53.24;97743.66;4982188;28;20050;-78
2023/03/18 00:46:04;;;;;;;4.18;3.63;;;;;;;9.28;52.56;97756.75;4965517;28;20106;-78
2023/03/18 00:48:36;;;;;;;6.60;4.05;;;;;;;9.20;53.76;97754.47;4961886;28;20466;-78
2023/03/18 00:51:07;;;;;;;6.60;4.25;;;;;;;9.08;53.81;97743.00;4997949;28;20086;-78
2023/03/18 00:53:37;;;;;;;5.40;4.05;;;;;;;9.13;53.78;97753.81;4996696;28;20584;-77
2023/03/18 00:56:05;;;;;;;5.43;3.97;;;;;;;9.05;53.72;97735.47;5013054;28;20077;-78
2023/03/18 00:58:33;;;;;;;5.55;3.90;;;;;;;9.10;54.19;97758.88;4991187;28;20471;-75
2023/03/18 01:00:59;;;;;;;7.00;4.22;;;;;;;9.12;53.98;97752.22;4991133;28;20061;-76
2023/03/18 01:03:25;;;;;;;4.60;3.90;;;;;;;9.13;54.17;97756.50;4974589;28;20613;-75
2023/03/18 01:05:52;;;;;;;4.63;4.13;;;;;;;9.19;53.67;97763.59;4982153;28;20038;-75
2023/03/18 01:08:18;;;;;;;6.13;4.45;;;;;;;9.19;53.32;97758.22;4990872;28;20022;-75
2023/03/18 01:10:44;;;;;;;6.53;3.97;;;;;;;9.17;53.97;97765.69;4974635;28;20034;-75
2023/03/18 01:13:09;;;;;;;5.00;3.83;;;;;;;9.10;54.42;97770.47;4990708;28;20505;-75
2023/03/18 01:15:34;;;;;;;5.55;4.07;;;;;;;9.17;53.90;97763.00;5007261;28;20034;-75
2023/03/18 01:18:00;;;;;;;5.13;4.20;;;;;;;9.15;54.08;97756.28;4974531;28;20504;-74
2023/03/18 01:20:26;;;;;;;5.10;4.60;;;;;;;9.20;54.26;97772.47;4990809;28;20034;-75
2023/03/18 01:22:55;;;;;;;4.90;4.40;;;;;;;9.19;53.56;97768.97;4962024;28;20024;-74
2023/03/18 01:25:22;;;;;;;6.35;4.43;;;;;;;9.07;54.34;97765.56;4990608;28;20038;-75
2023/03/18 01:27:51;;;;;;;4.47;4.07;;;;;;;9.15;54.25;97773.19;4974956;28;20085;-75
2023/03/18 01:30:16;;;;;;;4.85;4.00;;;;;;;9.11;54.22;97769.38;4990686;28;20030;-74
2023/03/18 01:32:42;;;;;;;5.63;3.95;;;;;;;9.10;53.68;97769.63;4974590;28;20037;-74
2023/03/18 01:35:09;;;;;;;4.50;4.07;;;;;;;8.95;54.15;97778.25;4991662;28;20046;-74
2023/03/18 01:37:34;;;;;;;5.63;4.20;;;;;;;8.99;54.32;97774.03;4974512;28;20061;-74
2023/03/18 01:40:10;;;;;;;4.20;3.50;;;;;;;8.94;54.38;97773.94;4990624;28;20494;-73
2023/03/18 01:42:36;;;;;;;5.70;4.30;;;;;;;8.98;55.45;97772.41;4979419;28;20060;-74
2023/03/18 01:45:20;;;;;;;5.20;3.75;;;;;;;8.98;55.12;97772.41;4974954;28;20033;-74
2023/03/18 01:47:48;;;;;;;6.65;4.65;;;;;;;8.83;55.52;97780.19;4975302;28;20035;-73
2023/03/18 01:50:20;;;;;;;6.05;4.53;;;;;;;8.87;55.01;97782.16;4974799;28;20121;-74
2023/03/18 01:52:48;;;;;;;7.20;3.85;;;;;;;8.59;57.39;97795.63;4980054;28;20042;-74
2023/03/18 01:55:18;;;;;;;5.82;4.25;;;;;;;8.67;56.27;97786.38;4967847;28;20037;-75
2023/03/18 01:57:44;;;;;;;7.10;4.47;;;;;;;8.68;56.54;97788.00;4965929;28;20077;-74
2023/03/18 02:00:10;;;;;;;5.03;4.03;;;;;;;8.60;56.62;97785.72;4990542;28;20443;-74
2023/03/18 02:02:45;;;;;;;6.55;4.40;;;;;;;8.51;56.84;97797.91;4991489;28;20027;-75
2023/03/18 02:05:15;;;;;;;5.50;3.80;;;;;;;8.44;57.99;97797.22;4958200;28;20037;-75
2023/03/18 02:07:43;;;;;;;5.45;4.15;;;;;;;8.40;57.54;97796.09;4990434;28;20054;-75
2023/03/18 02:10:15;;;;;;;5.75;4.70;;;;;;;8.34;58.09;97804.03;4993534;28;20486;-75
2023/03/18 02:12:44;;;;;;;6.38;4.20;;;;;;;8.20;58.40;97805.34;4983705;28;20089;-75
2023/03/18 02:15:15;;;;;;;5.10;4.60;;;;;;;8.30;58.61;97808.25;4993682;28;20025;-75
2023/03/18 02:17:45;;;;;;;5.82;4.25;;;;;;;8.40;58.33;97809.50;4993785;28;20030;-74
2023/03/18 02:20:33;;;;;;;5.82;4.30;;;;;;;8.46;57.37;97812.03;4977625;28;20057;-74
2023/03/18 02:23:24;;;;;;;5.53;4.28;;;;;;;8.41;57.86;97819.16;4994917;28;20040;-75
2023/03/18 02:26:04;;;;;;;5.70;4.57;;;;;;;8.48;57.60;97814.47;4981859;28;20034;-75
2023/03/18 02:28:30;;;;;;;6.28;4.38;;;;;;;8.50;57.35;97823.91;4977380;28;20031;-75
2023/03/18 02:30:59;;;;;;;8.73;4.70;;;;;;;8.49;57.91;97821.47;4977509;28;20022;-76
2023/03/18 02:33:29;;;;;;;5.43;4.43;;;;;;;8.43;58.42;97822.41;4993260;28;20034;-75
2023/03/18 02:36:00;;;;;;;7.50;4.05;;;;;;;8.33;59.36;97815.81;4980598;28;20085;-75
2023/03/18 02:38:25;;;;;;;7.10;4.70;;;;;;;8.07;60.13;97819.03;4984827;28;20026;-75
2023/03/18 02:40:52;;;;;;;7.55;4.32;;;;;;;8.17;59.94;97813.84;4993355;28;20653;-74
2023/03/18 02:43:20;;;;;;;5.85;4.75;;;;;;;8.23;60.04;97817.47;4993197;28;20026;-74
2023/03/18 02:46:00;;;;;;;4.53;4.13;;;;;;;8.24;58.94;97825.25;4993180;28;20030;-75
2023/03/18 02:48:28;;;;;;;5.03;4.53;;;;;;;8.19;58.63;97817.09;4976971;28;20034;-76
2023/03/18 02:50:55;;;;;;;6.25;4.65;;;;;;;8.25;58.71;97826.91;4976964;28;20117;-76
2023/03/18 02:53:20;;;;;;;5.93;4.35;;;;;;;8.35;57.97;97827.09;4992876;28;20143;-75
2023/03/18 02:55:46;;;;;;;5.65;4.50;;;;;;;8.30;57.96;97823.53;4989791;28;20058;-75
2023/03/18 02:58:11;;;;;;;6.85;4.70;;;;;;;8.26;58.62;97828.53;4971923;28;20034;-76
2023/03/18 03:00:37;;;;;;;4.72;4.10;;;;;;;8.28;58.19;97831.81;4976888;28;20037;-75
2023/03/18 03:03:04;;;;;;;5.72;4.25;;;;;;;8.24;58.76;97833.31;4989897;28;20038;-76
2023/03/18 03:05:30;;;;;;;5.07;4.25;;;;;;;8.14;59.46;97830.44;4976634;28;20026;-76
2023/03/18 03:07:56;;;;;;;5.03;4.43;;;;;;;8.02;59.48;97821.63;4960685;28;20520;-76
2023/03/18 03:10:21;;;;;;;5.65;4.30;;;;;;;8.08;58.92;97828.69;4992907;28;20038;-76
2023/03/18 03:12:47;;;;;;;4.80;4.30;;;;;;;8.12;58.68;97832.53;4992663;28;20026;-75
2023/03/18 03:15:15;;;;;;;6.50;4.43;;;;;;;8.10;59.81;97833.81;4976724;28;20019;-75
2023/03/18 03:17:47;;;;;;;6.00;4.45;;;;;;;7.94;60.12;97840.72;4977213;28;20111;-76
2023/03/18 03:20:17;;;;;;;7.05;4.43;;;;;;;7.98;59.78;97841.09;4992103;28;20030;-75
2023/03/18 03:22:42;;;;;;;6.13;4.47;;;;;;;7.79;61.40;97835.06;4979859;28;20042;-75
2023/03/18 03:25:09;;;;;;;5.32;4.32;;;;;;;7.90;61.22;97839.59;4976117;28;20080;-75
2023/03/18 03:27:36;;;;;;;6.43;4.22;;;;;;;7.76;61.97;97843.56;4992484;28;20493;-76
2023/03/18 03:30:06;;;;;;;5.35;4.72;;;;;;;7.58;63.51;97841.81;4993668;28;20030;-75
2023/03/18 03:32:32;;;;;;;7.03;5.07;;;;;;;7.46;64.96;97853.59;4992620;28;20517;-75
2023/03/18 03:34:57;;;;;;;6.55;4.70;;;;;;;7.17;65.91;97849.13;5001588;28;20030;-75
2023/03/18 03:37:22;;;;;;;8.13;5.30;;;;;;;7.17;67.19;97849.13;5008634;28;20107;-75
2023/03/18 03:39:48;;;;;;;6.63;4.97;;;;;;;7.07;67.40;97848.91;4992283;28;20041;-75
2023/03/18 03:42:13;;;;;;;5.93;4.60;;;;;;;7.02;67.72;97851.47;4993375;28;20061;-75
2023/03/18 03:44:39;;;;;;;11.00;5.18;;;;;;;6.90;68.68;97849.59;4991941;28;20541;-75
2023/03/18 03:47:06;;;;;;;5.47;4.68;;;;;;;6.91;68.44;97851.19;4991865;28;20034;-76
2023/03/18 03:49:31;;;;;;;6.20;5.00;;;;;;;7.08;68.02;97845.16;4981951;28;20051;-76
2023/03/18 03:51:57;;;;;;;6.93;5.18;;;;;;;7.11;68.45;97847.41;4989101;28;20518;-75
2023/03/18 03:54:24;;;;;;;6.70;5.32;;;;;;;6.98;68.65;97851.91;4991769;28;20022;-76
2023/03/18 03:56:50;;;;;;;5.85;5.25;;;;;;;6.86;69.58;97847.59;4975845;28;20038;-75
2023/03/18 03:59:18;;;;;;;7.15;5.70;;;;;;;6.94;69.56;97860.63;5001044;28;20445;-76
2023/03/18 04:02:16;;;;;;;6.90;5.35;;;;;;;6.98;69.92;97857.25;4991946;28;20090;-74
2023/03/18 04:04:42;;;;;;;5.65;5.05;;;;;;;7.20;68.13;97864.75;4992558;28;20026;-75
2023/03/18 04:07:16;;;;;;;7.25;5.13;;;;;;;7.16;68.53;97866.28;4991900;28;20037;-76
2023/03/18 04:09:41;;;;;;;6.03;5.20;;;;;;;7.22;68.27;97859.97;4975406;28;20061;-76
2023/03/18 04:12:08;;;;;;;7.70;5.35;;;;;;;7.11;69.02;97863.47;4975473;28;20049;-76
2023/03/18 04:14:34;;;;;;;7.53;5.05;;;;;;;7.17;68.90;97866.03;4975189;28;20126;-77
2023/03/18 04:16:59;;;;;;;5.65;5.05;;;;;;;7.28;67.89;97872.47;4975466;28;20026;-76
2023/03/18 04:19:27;;;;;;;7.82;6.32;;;;;;;7.23;69.14;97858.94;4975563;28;20041;-76
2023/03/18 04:21:53;;;;;;;8.82;5.03;;;;;;;7.29;67.46;97868.72;4959444;28;20018;-76
2023/03/18 04:24:20;;;;;;;7.35;5.07;;;;;;;7.25;67.32;97867.56;4975115;28;20169;-76
2023/03/18 04:26:47;;;;;;;8.15;5.25;;;;;;;7.29;67.74;97871.41;4975154;28;20154;-76
2023/03/18 04:29:12;;;;;;;6.40;5.03;;;;;;;7.41;67.48;97866.88;4995029;28;20030;-75
2023/03/18 04:31:38;;;;;;;9.27;5.88;;;;;;;7.26;68.89;97869.19;4991315;28;20516;-76
2023/03/18 04:34:03;;;;;;;7.60;5.68;;;;;;;7.21;69.58;97866.41;4991231;28;20093;-75
2023/03/18 04:36:29;;;;;;;7.25;5.40;;;;;;;7.28;69.07;97867.91;4975297;28;20025;-75
2023/03/18 04:38:55;;;;;;;6.35;5.53;;;;;;;7.26;68.43;97871.88;4975127;28;20030;-75
2023/03/18 04:41:22;;;;;;;7.30;5.82;;;;;;;7.30;67.95;97878.41;4991174;28;20038;-75
2023/03/18 04:43:48;;;;;;;6.35;5.72;;;;;;;7.12;69.13;97873.94;4974284;28;20529;-75
2023/03/18 04:46:14;;;;;;;7.32;5.60;;;;;;;7.14;68.54;97876.41;4991100;28;20054;-75
2023/03/18 04:48:42;;;;;;;7.55;5.72;;;;;;;7.17;68.17;97870.56;4991765;28;20545;-75
2023/03/18 04:51:08;;;;;;;6.50;5.90;;;;;;;6.97;69.76;97869.03;4976543;28;20030;-75
2023/03/18 04:53:35;;;;;;;6.63;5.65;;;;;;;6.95;69.52;97873.78;4990845;28;20122;-76
2023/03/18 04:56:01;;;;;;;7.30;6.13;;;;;;;6.89;69.87;97874.69;4991031;28;20041;-75
2023/03/18 04:58:35;;;;;;;7.68;6.18;;;;;;;6.84;69.35;97877.25;4962927;28;20118;-76
2023/03/18 05:01:08;;;;;;;8.68;6.45;;;;;;;6.74;69.55;97873.50;4964948;28;20038;-76
2023/03/18 05:03:36;;;;;;;7.07;6.15;;;;;;;6.69;70.51;97868.84;4989409;28;20045;-76
2023/03/18 05:06:02;;;;;;;9.35;5.93;;;;;;;6.76;70.05;97866.88;4990986;28;20022;-75
2023/03/18 05:08:37;;;;;;;6.28;5.65;;;;;;;6.69;70.06;97860.81;4976013;28;20046;-75
2023/03/18 05:11:03;;;;;;;7.40;6.70;;;;;;;6.56;70.83;97863.66;4974710;28;20038;-75
2023/03/18 05:13:29;;;;;;;7.55;6.70;;;;;;;6.50;71.08;97869.09;4990711;28;20030;-74
2023/03/18 05:15:56;;;;;;;8.27;7.47;;;;;;;6.28;71.30;97870.63;4990771;28;20034;-75
2023/03/18 05:18:21;;;;;;;9.00;7.28;;;;;;;6.42;71.26;97867.53;4993351;28;20394;-75
2023/03/18 05:20:51;;;;;;;8.98;8.15;;;;;;;6.30;71.56;97869.38;4996962;28;20085;-75
2023/03/18 05:23:17;;;;;;;9.75;8.85;;;;;;;6.35;70.98;97861.47;4990669;28;20022;-74
2023/03/18 05:25:49;;;;;;;10.15;9.25;;;;;;;6.37;71.04;97870.06;4990702;28;20034;-76
2023/03/18 05:28:16;;;;;;;9.38;8.45;;;;;;;6.40;70.46;97874.97;4971531;28;20079;-76
2023/03/18 05:30:49;;;;;;;10.55;9.50;;;;;;;6.22;71.59;97878.50;4986524;28;20053;-76
2023/03/18 05:33:15;;;;;;;10.98;10.05;;;;;;;6.13;71.64;97889.72;4980535;28;20037;-76
2023/03/18 05:35:52;;;;;;;11.43;10.55;;;;;;;6.06;72.60;97878.28;4990715;28;20034;-75
2023/03/18 05:38:22;;;;;;;11.13;9.90;;;;;;;6.22;71.13;97880.34;4959672;28;20117;-75
2023/03/18 05:40:48;;;;;;;10.90;10.10;;;;;;;6.31;72.00;97880.84;4990743;28;20060;-75
2023/03/18 05:43:30;;;;;;;11.00;9.95;;;;;;;6.38;70.92;97886.94;4993570;28;20446;-73
2023/03/18 05:45:57;;;;;;;11.93;10.93;;;;;;;6.34;71.49;97891.13;4997344;28;20034;-74
2023/03/18 05:48:33;;;;;;;10.93;10.10;;;;;;;6.29;71.41;97889.13;4994337;28;20502;-76
2023/03/18 05:51:04;;;;;;;14.32;13.23;;;;;;;6.24;72.09;97894.31;4978749;28;20057;-76
2023/03/18 05:53:30;;;;;;;17.63;16.25;;;;;;;6.34;72.03;97891.13;4994144;28;20034;-76
2023/03/18 05:56:06;;;;;;;18.53;16.70;;;;;;;6.42;71.99;97899.63;4979555;28;20474;-76
2023/03/18 05:58:33;;;;;;;20.13;18.30;;;;;;;6.30;72.15;97885.41;4994298;28;20316;-76
2023/03/18 06:01:15;;;;;;;25.13;22.58;;;;;;;6.53;71.12;97890.88;4980472;28;20030;-75
2023/03/18 06:03:41;;;;;;;22.13;20.02;;;;;;;6.57;70.48;97892.03;5010380;28;20100;-76
2023/03/18 06:06:07;;;;;;;23.23;20.90;;;;;;;6.53;71.96;97901.56;4977901;28;20057;-76
2023/03/18 06:08:33;;;;;;;14.98;13.77;;;;;;;6.63;71.08;97896.47;4977704;28;20035;-75
2023/03/18 06:10:58;;;;;;;21.27;19.48;;;;;;;6.64;70.56;97902.66;4993928;28;20037;-75
2023/03/18 06:13:24;;;;;;;13.35;12.25;;;;;;;6.67;71.64;97903.03;4993745;28;20034;-75
2023/03/18 06:15:55;;;;;;;11.30;10.40;;;;;;;6.85;70.81;97907.50;4994087;28;20030;-75
2023/03/18 06:18:21;;;;;;;13.75;12.13;;;;;;;6.91;70.74;97902.06;4997384;28;20663;-75
2023/03/18 06:20:46;;;;;;;11.93;10.93;;;;;;;6.96;70.22;97890.66;4990524;28;20093;-75
2023/03/18 06:23:13;;;;;;;12.75;11.60;;;;;;;7.03;70.08;97894.06;4993505;28;20041;-75
2023/03/18 06:25:40;;;;;;;12.40;11.32;;;;;;;7.06;70.78;97896.28;4994898;28;20034;-76
2023/03/18 06:28:06;;;;;;;13.63;12.52;;;;;;;7.01;71.29;97900.69;4980768;28;20034;-75
2023/03/18 06:30:32;;;;;;;17.23;16.00;;;;;;;6.86;72.37;97901.91;4977469;28;20454;-75
2023/03/18 06:32:59;;;;;;;16.95;15.80;;;;;;;6.83;72.51;97901.56;4993366;28;20035;-75
2023/03/18 06:35:27;;;;;;;15.48;14.02;;;;;;;6.96;71.40;97891.47;4993370;28;20715;-75
2023/03/18 06:37:53;;;;;;;15.85;14.65;;;;;;;6.75;72.42;97900.03;4993350;28;20026;-75
2023/03/18 06:40:19;;;;;;;19.17;17.67;;;;;;;6.71;71.64;97904.22;4993642;28;20077;-75
2023/03/18 06:42:45;;;;;;;18.15;16.67;;;;;;;6.82;72.08;97911.44;4993406;28;20037;-74
2023/03/18 06:45:21;;;;;;;14.43;13.20;;;;;;;7.06;70.80;97906.16;4993192;28;20034;-75
2023/03/18 06:47:53;;;;;;;12.52;11.50;;;;;;;7.23;69.75;97904.47;5008894;28;20034;-75
2023/03/18 06:50:19;;;;;;;10.77;9.88;;;;;;;7.26;68.18;97901.34;4976968;28;20030;-74
2023/03/18 06:52:44;;;;;;;24.70;19.73;;;;;;;7.34;68.56;97901.00;4992946;28;20050;-74
2023/03/18 06:55:14;;;;;;;44.65;32.03;;;;;;;7.39;67.78;97911.84;4975799;28;20032;-74
2023/03/18 06:57:43;;;;;;;57.63;36.88;;;;;;;7.47;66.13;97908.78;4993008;28;20370;-73
2023/03/18 07:00:11;;;;;;;58.60;34.88;;;;;;;7.44;66.69;97910.09;5048588;23;20032;-73
2023/03/18 07:02:37;;;;;;;75.70;45.67;;;;;;;7.55;66.31;97908.47;5051024;28;20025;-72
2023/03/18 07:05:03;;;;;;;40.35;25.50;;;;;;;7.36;68.27;97912.28;5031969;28;20492;-73
2023/03/18 07:07:32;;;;;;;13.40;10.05;;;;;;;7.31;69.27;97930.91;5051998;28;20495;-73
2023/03/18 07:09:57;;;;;;;9.85;8.85;;;;;;;7.28;69.50;97942.09;5032644;28;20033;-73
2023/03/18 07:12:23;;;;;;;9.40;8.25;;;;;;;7.45;68.42;97937.69;5015786;28;20030;-73
2023/03/18 07:14:49;;;;;;;8.63;6.75;;;;;;;7.66;68.15;97945.16;5015308;28;20037;-75
2023/03/18 07:17:17;;;;;;;7.82;6.40;;;;;;;7.97;66.56;97930.59;5016336;28;20099;-73
2023/03/18 07:19:42;;;;;;;8.05;5.95;;;;;;;8.18;65.62;97933.50;5031778;28;20484;-74
2023/03/18 07:22:08;;;;;;;7.07;6.35;;;;;;;8.07;66.45;97945.06;5027847;28;20041;-74
2023/03/18 07:24:34;;;;;;;10.57;7.30;;;;;;;7.87;67.87;97933.88;4998455;28;20056;-74
2023/03/18 07:27:00;;;;;;;7.68;6.45;;;;;;;7.99;67.20;97944.59;4999102;28;20025;-74
2023/03/18 07:29:25;;;;;;;9.18;8.18;;;;;;;8.14;66.88;97948.44;5027230;28;20087;-74
2023/03/18 07:31:50;;;;;;;8.65;7.18;;;;;;;8.19;66.35;97958.47;5026149;28;20026;-74
2023/03/18 07:34:18;;;;;;;9.43;7.40;;;;;;;8.46;65.06;97958.81;5014819;28;20029;-75
2023/03/18 07:36:43;;;;;;;10.20;7.90;;;;;;;8.75;64.27;97955.13;5021157;28;20048;-74
2023/03/18 07:39:09;;;;;;;8.35;6.50;;;;;;;8.91;63.64;97954.34;5030148;28;20029;-73
2023/03/18 07:41:35;;;;;;;11.90;6.50;;;;;;;9.11;62.65;97954.72;5028342;28;20501;-74
2023/03/18 07:44:00;;;;;;;8.27;5.95;;;;;;;9.19;62.32;97954.34;5009258;28;20405;-74
2023/03/18 07:46:26;;;;;;;7.03;6.30;;;;;;;9.15;64.22;97945.13;5031506;28;20442;-74
2023/03/18 07:48:52;;;;;;;11.38;7.70;;;;;;;9.15;65.57;97955.88;5027892;28;20038;-74
2023/03/18 07:51:17;;;;;;;8.85;7.10;;;;;;;9.32;64.96;97947.84;5022465;28;20036;-74
2023/03/18 07:53:43;;;;;;;9.77;7.82;;;;;;;9.37;66.50;97948.75;5031103;28;20048;-74
2023/03/18 07:56:09;;;;;;;8.68;6.53;;;;;;;9.65;63.87;97948.69;5014884;28;20035;-74
2023/03/18 07:58:35;;;;;;;11.95;7.72;;;;;;;9.81;62.63;97940.84;5031028;28;20037;-74
2023/03/18 08:01:00;;;;;;;8.63;6.65;;;;;;;9.96;61.63;97950.00;5031333;28;20100;-75
2023/03/18 08:03:26;;;;;;;8.98;7.05;;;;;;;10.05;60.77;97950.38;5014310;28;20171;-73
2023/03/18 08:05:52;;;;;;;7.97;5.53;;;;;;;10.07;61.10;97953.63;5030878;28;20036;-73
2023/03/18 08:08:17;;;;;;;9.88;6.25;;;;;;;10.08;60.52;97945.31;5014490;28;20037;-75
2023/03/18 08:10:43;;;;;;;11.88;6.65;;;;;;;10.34;60.05;97950.03;5031134;28;20219;-74
2023/03/18 08:13:08;;;;;;;11.43;6.50;;;;;;;10.50;60.21;97951.06;5027264;28;20030;-75
2023/03/18 08:15:34;;;;;;;11.55;6.00;;;;;;;10.68;60.55;97949.91;5027688;28;20441;-74
2023/03/18 08:17:59;;;;;;;7.65;6.05;;;;;;;10.59;60.24;97957.63;4998017;28;20041;-74
2023/03/18 08:20:25;;;;;;;7.35;5.90;;;;;;;10.65;60.39;97955.78;5030802;28;20100;-74
2023/03/18 08:22:50;;;;;;;9.40;6.22;;;;;;;10.65;61.33;97961.19;5027392;28;20045;-74
2023/03/18 08:25:16;;;;;;;9.10;6.35;;;;;;;10.85;60.35;97970.31;5021743;28;20032;-74
2023/03/18 08:27:41;;;;;;;9.57;6.40;;;;;;;10.75;60.38;97964.84;5030772;28;20523;-74
2023/03/18 08:30:08;;;;;;;10.13;6.60;;;;;;;10.81;60.31;97966.50;5030604;28;20442;-75
2023/03/18 08:32:33;;;;;;;9.75;7.53;;;;;;;10.95;60.11;97970.44;5030222;28;20052;-74
2023/03/18 08:34:59;;;;;;;9.57;5.97;;;;;;;11.07;60.78;97968.44;5031701;28;20018;-74
2023/03/18 08:37:24;;;;;;;11.68;6.20;;;;;;;11.18;58.78;97972.03;5030553;28;20033;-74
2023/03/18 08:39:50;;;;;;;10.70;6.65;;;;;;;10.68;62.18;97985.75;5031734;28;20018;-74
2023/03/18 08:42:16;;;;;;;11.75;8.27;;;;;;;10.53;63.11;97990.09;5030698;28;20069;-74
2023/03/18 08:44:42;;;;;;;9.30;7.28;;;;;;;10.59;64.04;97973.78;5030179;28;20028;-74
2023/03/18 08:47:07;;;;;;;11.02;6.57;;;;;;;10.35;62.33;97980.44;5031492;28;20116;-74
2023/03/18 08:49:33;;;;;;;10.05;6.47;;;;;;;10.77;63.14;97981.56;5013774;28;20037;-73
2023/03/18 08:51:58;;;;;;;12.77;7.25;;;;;;;10.90;60.75;97975.78;5030458;28;20587;-74
2023/03/18 08:54:24;;;;;;;8.90;5.90;;;;;;;10.98;59.78;97972.66;5030294;28;20518;-74
2023/03/18 08:56:51;;;;;;;8.65;6.50;;;;;;;11.21;58.88;97966.16;5030409;28;20121;-73
2023/03/18 08:59:17;;;;;;;8.10;6.25;;;;;;;11.51;61.60;97971.84;5013924;28;20443;-76
2023/03/18 09:01:42;;;;;;;11.75;6.20;;;;;;;11.50;57.87;97958.63;5030335;28;20030;-74
2023/03/18 09:04:08;;;;;;;7.38;5.88;;;;;;;11.91;58.76;97963.31;5013685;28;20025;-74
2023/03/18 09:06:33;;;;;;;10.07;6.28;;;;;;;12.12;58.43;97950.75;5030370;28;20041;-74
2023/03/18 09:08:59;;;;;;;9.52;5.78;;;;;;;12.19;57.21;97962.97;5046954;28;20128;-74
2023/03/18 09:11:24;;;;;;;7.43;5.57;;;;;;;12.15;56.50;97961.88;5027031;28;20072;-74
2023/03/18 09:13:49;;;;;;;11.23;5.82;;;;;;;12.20;57.02;97970.00;5020525;28;20029;-73
2023/03/18 09:16:16;;;;;;;11.45;6.93;;;;;;;12.22;56.37;97965.16;5013641;28;20045;-75
2023/03/18 09:18:41;;;;;;;10.05;6.43;;;;;;;12.40;55.40;97963.91;5014746;28;20020;-75
2023/03/18 09:21:06;;;;;;;11.65;5.85;;;;;;;12.48;55.55;97966.13;5050735;28;20045;-74
2023/03/18 09:23:33;;;;;;;7.93;5.70;;;;;;;12.41;55.89;97960.13;5041011;28;20112;-74
2023/03/18 09:25:58;;;;;;;9.73;5.43;;;;;;;12.46;55.34;97963.66;5033970;28;20056;-74
2023/03/18 09:28:24;;;;;;;7.72;6.03;;;;;;;12.51;55.87;97959.38;5033966;28;20396;-73
2023/03/18 09:30:50;;;;;;;7.68;5.93;;;;;;;12.65;55.88;97965.94;5033748;28;20056;-73
2023/03/18 09:33:15;;;;;;;102.60;30.98;;;;;;;12.41;56.29;97960.13;5030335;28;20103;-75
2023/03/18 09:35:41;;;;;;;204.20;57.03;;;;;;;12.55;58.38;97960.47;5030731;28;20047;-75
2023/03/18 09:38:07;;;;;;;72.53;25.42;;;;;;;12.57;56.69;97952.91;5033784;28;20108;-75
2023/03/18 09:40:37;;;;;;;10.40;6.55;;;;;;;12.68;55.97;97958.09;5033725;28;20040;-75
2023/03/18 09:43:30;;;;;;;9.77;6.28;;;;;;;12.87;55.67;97959.28;5033627;28;20416;-75
2023/03/18 09:46:20;;;;;;;12.93;6.95;;;;;;;12.88;54.36;97965.50;5005374;28;20047;-72
2023/03/18 09:49:14;;;;;;;11.18;6.60;;;;;;;13.07;54.56;97963.94;5033632;28;20045;-72
2023/03/18 09:51:49;;;;;;;127.05;34.88;;;;;;;12.94;55.55;97964.44;5033779;28;20041;-73
2023/03/18 09:54:30;;;;;;;39.35;13.35;;;;;;;12.86;56.02;97967.66;5022981;28;20508;-76
2023/03/18 09:56:56;;;;;;;12.43;7.15;;;;;;;13.30;55.10;97968.09;5033515;28;20533;-72
2023/03/18 09:59:33;;;;;;;9.63;5.65;;;;;;;13.46;53.59;97967.84;5033199;28;20022;-72
2023/03/18 10:01:59;;;;;;;9.68;5.93;;;;;;;13.45;54.62;97973.50;5033595;28;20040;-75
2023/03/18 10:04:26;;;;;;;8.95;5.43;;;;;;;13.69;52.77;97964.63;5034602;28;20137;-74
2023/03/18 10:07:03;;;;;;;9.35;5.65;;;;;;;13.64;53.30;97972.75;5003002;28;20044;-73
2023/03/18 10:09:43;;;;;;;9.85;5.10;;;;;;;13.54;51.82;97967.31;5033355;28;20392;-72
2023/03/18 10:12:20;;;;;;;8.20;4.78;;;;;;;13.59;51.18;97967.31;5033403;28;20132;-71
2023/03/18 10:15:05;;;;;;;7.45;4.90;;;;;;;13.77;52.18;97972.19;5033295;28;20037;-72
2023/03/18 10:17:39;;;;;;;8.57;5.13;;;;;;;13.92;51.68;97965.16;5034609;28;20029;-72
2023/03/18 10:20:15;;;;;;;7.50;4.90;;;;;;;13.98;52.77;97961.38;5033392;28;20485;-72
2023/03/18 10:22:47;;;;;;;10.00;4.38;;;;;;;14.19;51.92;97960.28;5045774;28;20094;-71
2023/03/18 10:25:38;;;;;;;8.32;4.65;;;;;;;14.11;51.38;97967.06;5044045;28;20084;-72
2023/03/18 10:28:12;;;;;;;6.57;4.20;;;;;;;14.13;50.94;97964.06;5027579;28;20053;-75
2023/03/18 10:30:48;;;;;;;8.98;4.07;;;;;;;14.05;50.52;97959.22;5029589;28;20045;-72
2023/03/18 10:33:50;;;;;;;8.45;4.50;;;;;;;14.17;50.82;97951.59;5024364;28;20033;-73
2023/03/18 10:36:41;;;;;;;7.32;4.28;;;;;;;14.33;49.92;97953.22;5012805;28;20033;-73
2023/03/18 10:39:12;;;;;;;5.85;3.92;;;;;;;14.48;50.48;97954.00;5033062;28;20072;-73
2023/03/18 10:41:39;;;;;;;7.60;4.05;;;;;;;14.68;48.50;97953.13;5032937;28;20037;-73
2023/03/18 10:44:19;;;;;;;7.70;3.92;;;;;;;14.77;49.39;97954.16;5017128;28;20025;-72
2023/03/18 10:46:46;;;;;;;4.28;3.30;;;;;;;14.80;49.51;97955.53;5032831;28;20103;-73
2023/03/18 10:49:16;;;;;;;7.57;3.13;;;;;;;14.67;48.52;97946.09;5016354;28;20396;-73
2023/03/18 10:51:59;;;;;;;7.45;3.40;;;;;;;14.51;48.05;97942.63;5033026;28;20104;-73
2023/03/18 10:54:31;;;;;;;6.97;3.00;;;;;;;14.90;48.22;97950.88;5015788;28;20034;-74
2023/03/18 10:56:56;;;;;;;9.32;3.50;;;;;;;14.57;48.80;97942.59;5032404;28;20037;-74
2023/03/18 10:59:23;;;;;;;7.85;3.70;;;;;;;14.80;47.70;97940.06;5015955;28;20494;-72
2023/03/18 11:02:25;;;;;;;6.40;2.75;;;;;;;15.05;47.38;97937.22;5015991;28;20037;-73
2023/03/18 11:04:53;;;;;;;7.15;3.10;;;;;;;14.99;47.02;97932.13;5032282;28;20041;-73
2023/03/18 11:07:23;;;;;;;4.15;2.70;;;;;;;15.02;47.34;97935.09;5032254;28;20028;-75
2023/03/18 11:09:49;;;;;;;5.88;3.28;;;;;;;15.16;48.12;97932.56;5012624;28;20130;-74
2023/03/18 11:12:17;;;;;;;6.13;2.80;;;;;;;15.20;47.69;97923.59;5022823;28;20111;-73
2023/03/18 11:14:48;;;;;;;6.32;2.90;;;;;;;15.15;48.47;97937.19;5032072;28;20037;-73
2023/03/18 11:17:24;;;;;;;7.50;3.20;;;;;;;15.15;47.40;97926.34;5015526;28;20082;-73
2023/03/18 11:20:24;;;;;;;4.25;2.78;;;;;;;15.24;48.41;97935.50;5032138;28;20477;-73
2023/03/18 11:22:51;;;;;;;9.52;3.03;;;;;;;15.57;47.75;97933.97;5028297;28;20059;-73
2023/03/18 11:25:17;;;;;;;7.50;2.92;;;;;;;15.52;47.55;97930.50;5015331;28;20419;-74
2023/03/18 11:27:48;;;;;;;7.70;3.03;;;;;;;15.61;48.87;97926.06;5032831;28;20068;-74
2023/03/18 11:30:20;;;;;;;9.68;3.08;;;;;;;15.55;48.33;97930.72;5032760;28;20054;-74
2023/03/18 11:32:57;;;;;;;5.43;2.92;;;;;;;15.66;48.24;97931.47;5028320;28;20144;-74
2023/03/18 11:35:39;;;;;;;9.63;3.33;;;;;;;15.78;48.13;97930.00;5008527;28;20124;-74
2023/03/18 11:38:06;;;;;;;6.30;2.83;;;;;;;15.70;46.41;97927.09;5031661;28;20380;-74
2023/03/18 11:40:32;;;;;;;7.35;2.75;;;;;;;15.62;47.09;97920.34;5032530;28;20044;-74
2023/03/18 11:43:00;;;;;;;6.85;3.13;;;;;;;15.59;47.86;97909.25;5030804;28;20455;-74
2023/03/18 11:45:28;;;;;;;7.10;2.67;;;;;;;16.02;47.43;97913.75;5031341;28;20060;-74